createdAt,value
2022-12-19T00:00:38.391Z,26.10
2022-12-19T00:03:40.595Z,23.95
2022-12-19T00:06:43.897Z,17.90
2022-12-19T00:09:46.441Z,25.00
2022-12-19T00:12:48.630Z,18.73
2022-12-19T00:15:52.358Z,19.35
2022-12-19T00:18:58.873Z,20.92
2022-12-19T00:22:01.179Z,20.23
2022-12-19T00:25:03.479Z,17.25
2022-12-19T00:28:06.695Z,18.80
2022-12-19T00:31:09.348Z,19.05
2022-12-19T00:34:13.208Z,23.10
2022-12-19T00:37:15.447Z,20.65
2022-12-19T00:40:19.628Z,20.85
2022-12-19T00:43:21.792Z,17.90
2022-12-19T00:46:26.532Z,17.38
2022-12-19T00:49:28.699Z,16.17
2022-12-19T00:52:31.416Z,29.45
2022-12-19T00:55:38.530Z,17.95
2022-12-19T00:58:46.866Z,17.58
2022-12-19T01:01:49.830Z,17.17
2022-12-19T01:04:53.462Z,20.83
2022-12-19T01:07:56.009Z,20.33
2022-12-19T01:10:59.013Z,20.35
2022-12-19T01:14:01.113Z,21.75
2022-12-19T01:17:03.270Z,22.15
2022-12-19T01:20:06.137Z,18.02
2022-12-19T01:23:11.520Z,18.40
2022-12-19T01:26:14.252Z,21.98
2022-12-19T01:29:17.027Z,17.33
2022-12-19T01:32:19.288Z,20.75
2022-12-19T01:35:22.343Z,27.20
2022-12-19T01:38:26.292Z,18.83
2022-12-19T01:41:28.769Z,20.75
2022-12-19T01:44:31.835Z,20.30
2022-12-19T01:47:57.157Z,20.92
2022-12-19T01:51:05.639Z,17.45
2022-12-19T01:54:12.223Z,15.90
2022-12-19T01:57:18.430Z,19.25
2022-12-19T02:00:20.926Z,16.98
2022-12-19T02:03:29.337Z,18.63
2022-12-19T02:06:35.153Z,20.85
2022-12-19T02:09:37.593Z,24.02
2022-12-19T02:12:44.592Z,16.20
2022-12-19T02:16:30.125Z,21.40
2022-12-19T02:20:07.034Z,21.63
2022-12-19T02:23:28.824Z,23.67
2022-12-19T02:27:25.452Z,19.92
2022-12-19T02:30:49.795Z,20.73
2022-12-19T02:34:15.021Z,20.52
2022-12-19T02:37:53.990Z,25.38
2022-12-19T02:41:03.900Z,25.17
2022-12-19T02:44:07.057Z,20.83
2022-12-19T02:47:10.606Z,24.05
2022-12-19T02:50:13.931Z,24.27
2022-12-19T02:53:17.120Z,23.83
2022-12-19T02:56:36.834Z,24.58
2022-12-19T03:00:04.135Z,22.95
2022-12-19T03:03:38.452Z,22.38
2022-12-19T03:07:09.198Z,22.95
2022-12-19T03:10:24.153Z,26.98
2022-12-19T03:13:46.493Z,23.90
2022-12-19T03:16:49.051Z,23.38
2022-12-19T03:19:51.215Z,21.05
2022-12-19T03:22:53.886Z,26.35
2022-12-19T03:26:01.852Z,23.05
2022-12-19T03:29:09.140Z,28.48
2022-12-19T03:32:14.591Z,23.13
2022-12-19T03:35:24.782Z,22.20
2022-12-19T03:38:28.947Z,23.95
2022-12-19T03:41:50.442Z,24.70
2022-12-19T03:44:55.807Z,23.13
2022-12-19T03:48:04.419Z,24.38
2022-12-19T03:51:37.260Z,22.77
2022-12-19T03:54:47.567Z,22.02
2022-12-19T03:57:57.291Z,22.23
2022-12-19T04:01:01.165Z,20.15
2022-12-19T04:04:06.222Z,21.00
2022-12-19T04:07:09.161Z,23.52
2022-12-19T04:10:15.564Z,24.77
2022-12-19T04:13:22.995Z,23.92
2022-12-19T04:16:48.436Z,22.45
2022-12-19T04:20:12.507Z,25.08
2022-12-19T04:23:21.366Z,21.55
2022-12-19T04:26:24.951Z,26.83
2022-12-19T04:29:29.281Z,26.00
2022-12-19T04:32:35.391Z,21.67
2022-12-19T04:35:38.297Z,23.70
2022-12-19T04:38:42.874Z,25.38
2022-12-19T04:41:44.938Z,25.33
2022-12-19T04:44:47.487Z,26.35
2022-12-19T04:47:49.623Z,24.63
2022-12-19T04:50:52.096Z,21.63
2022-12-19T04:53:54.269Z,22.77
2022-12-19T04:56:57.150Z,20.38
2022-12-19T04:59:59.220Z,23.65
2022-12-19T05:03:01.559Z,23.23
2022-12-19T05:06:12.490Z,29.45
2022-12-19T05:09:17.993Z,26.00
2022-12-19T05:12:20.617Z,22.48
2022-12-19T05:15:22.752Z,28.15
2022-12-19T05:18:25.490Z,22.80
2022-12-19T05:21:27.718Z,23.80
2022-12-19T05:24:29.942Z,24.80
2022-12-19T05:27:32.376Z,25.33
2022-12-19T05:30:35.162Z,35.85
2022-12-19T05:33:38.378Z,31.00
2022-12-19T05:36:41.044Z,34.63
2022-12-19T05:39:43.209Z,27.77
2022-12-19T05:42:45.167Z,33.53
2022-12-19T05:45:47.341Z,24.05
2022-12-19T05:48:49.826Z,32.53
2022-12-19T05:51:52.051Z,29.05
2022-12-19T05:54:54.068Z,31.83
2022-12-19T05:57:58.499Z,26.70
2022-12-19T06:01:28.059Z,21.60
2022-12-19T06:04:30.719Z,26.80
2022-12-19T06:07:32.845Z,24.77
2022-12-19T06:10:34.866Z,27.52
2022-12-19T06:13:37.471Z,30.42
2022-12-19T06:16:39.574Z,34.20
2022-12-19T06:19:41.871Z,23.05
2022-12-19T06:22:44.370Z,28.38
2022-12-19T06:25:47.264Z,19.55
2022-12-19T06:28:50.987Z,21.38
2022-12-19T06:31:53.102Z,17.52
2022-12-19T06:35:04.138Z,20.05
2022-12-19T06:38:09.087Z,20.80
2022-12-19T06:41:32.387Z,18.10
2022-12-19T06:44:35.084Z,26.40
2022-12-19T06:47:37.167Z,26.50
2022-12-19T06:50:39.341Z,32.03
2022-12-19T06:54:06.841Z,34.53
2022-12-19T06:57:13.711Z,30.13
2022-12-19T07:00:18.135Z,26.17
2022-12-19T07:03:24.518Z,40.42
2022-12-19T07:06:26.834Z,27.50
2022-12-19T07:09:30.818Z,34.60
2022-12-19T07:12:33.107Z,33.72
2022-12-19T07:15:37.013Z,34.50
2022-12-19T07:18:41.280Z,31.42
2022-12-19T07:21:43.877Z,31.77
2022-12-19T07:24:46.345Z,31.98
2022-12-19T07:27:50.295Z,32.03
2022-12-19T07:30:52.587Z,35.22
2022-12-19T07:33:55.297Z,36.25
2022-12-19T07:36:57.503Z,28.45
2022-12-19T07:39:59.739Z,31.40
2022-12-19T07:43:03.716Z,38.67
2022-12-19T07:46:09.096Z,38.25
2022-12-19T07:49:11.289Z,40.92
2022-12-19T07:52:13.530Z,37.92
2022-12-19T07:55:15.760Z,41.17
2022-12-19T07:58:18.511Z,32.35
2022-12-19T08:01:20.791Z,40.17
2022-12-19T08:04:23.048Z,32.85
2022-12-19T08:07:25.175Z,35.05
2022-12-19T08:10:27.223Z,25.40
2022-12-19T08:13:35.513Z,31.98
2022-12-19T08:17:11.103Z,28.10
2022-12-19T08:20:02.120Z,31.73
2022-12-19T08:23:04.753Z,29.48
2022-12-19T08:26:10.940Z,34.85
2022-12-19T08:29:13.366Z,37.13
2022-12-19T08:32:20.774Z,32.10
2022-12-19T08:35:23.487Z,30.98
2022-12-19T08:38:25.500Z,38.88
2022-12-19T08:41:27.518Z,29.70
2022-12-19T08:44:30.905Z,31.95
2022-12-19T08:47:32.914Z,27.50
2022-12-19T08:50:36.438Z,27.15
2022-12-19T08:53:42.499Z,33.25
2022-12-19T08:56:46.745Z,28.10
2022-12-19T08:59:49.333Z,27.55
2022-12-19T09:02:52.893Z,29.92
2022-12-19T09:06:07.889Z,25.15
2022-12-19T09:09:11.240Z,33.05
2022-12-19T09:12:15.148Z,35.67
2022-12-19T09:15:17.332Z,31.38
2022-12-19T09:18:19.631Z,40.10
2022-12-19T09:21:29.453Z,38.40
2022-12-19T09:24:31.716Z,32.70
2022-12-19T09:27:47.696Z,33.90
2022-12-19T09:31:02.744Z,33.58
2022-12-19T09:34:06.563Z,34.33
2022-12-19T09:37:16.392Z,26.70
2022-12-19T09:40:21.131Z,31.15
2022-12-19T09:44:01.998Z,28.25
2022-12-19T09:47:20.012Z,37.47
2022-12-19T09:50:43.620Z,38.80
2022-12-19T09:53:56.859Z,30.38
2022-12-19T09:57:04.366Z,31.95
2022-12-19T10:00:29.076Z,32.10
2022-12-19T10:04:13.349Z,29.25
2022-12-19T10:07:53.002Z,33.60
2022-12-19T10:12:39.408Z,30.02
2022-12-19T10:14:44.021Z,28.98
2022-12-19T10:18:17.523Z,32.85
2022-12-19T10:21:50.654Z,24.85
2022-12-19T10:25:09.010Z,30.85
2022-12-19T10:28:11.756Z,30.30
2022-12-19T10:31:28.058Z,27.67
2022-12-19T10:34:41.224Z,37.53
2022-12-19T10:37:51.130Z,34.08
2022-12-19T10:41:09.367Z,33.45
2022-12-19T10:44:13.484Z,33.10
2022-12-19T10:47:26.483Z,28.58
2022-12-19T10:50:31.004Z,31.42
2022-12-19T10:53:33.425Z,42.78
2022-12-19T10:56:39.228Z,36.58
2022-12-19T10:59:59.329Z,39.80
2022-12-19T11:03:13.439Z,38.22
2022-12-19T11:06:35.916Z,32.70
2022-12-19T11:18:09.859Z,33.45
2022-12-19T11:23:38.009Z,32.53
2022-12-19T11:29:17.532Z,36.92
2022-12-19T11:30:09.730Z,39.08
2022-12-19T11:30:38.266Z,45.28
2022-12-19T11:34:04.361Z,31.63
2022-12-19T11:37:12.238Z,38.17
2022-12-19T11:40:35.772Z,36.10
2022-12-19T11:43:48.012Z,37.38
2022-12-19T11:46:57.449Z,36.67
2022-12-19T11:50:11.247Z,37.88
2022-12-19T11:53:19.391Z,36.88
2022-12-19T11:56:24.851Z,30.10
2022-12-19T11:59:29.659Z,35.08
2022-12-19T12:02:59.778Z,32.45
2022-12-19T12:06:13.629Z,39.25
2022-12-19T12:14:49.817Z,41.95
2022-12-19T12:24:15.841Z,37.70
2022-12-19T12:29:44.451Z,39.78
2022-12-19T12:31:08.292Z,41.10
2022-12-19T12:31:26.818Z,30.55
2022-12-19T12:31:52.924Z,39.63
2022-12-19T12:35:56.635Z,32.03
2022-12-19T12:39:29.847Z,36.83
2022-12-19T12:43:01.810Z,31.92
2022-12-19T12:46:23.464Z,33.22
2022-12-19T12:49:43.510Z,34.42
2022-12-19T12:52:53.895Z,28.77
2022-12-19T12:55:59.133Z,34.42
2022-12-19T12:59:02.137Z,41.45
2022-12-19T13:02:17.061Z,38.67
2022-12-19T13:05:41.063Z,33.85
2022-12-19T13:08:48.579Z,36.15
2022-12-19T13:12:19.856Z,37.25
2022-12-19T13:15:29.026Z,35.33
2022-12-19T13:18:34.425Z,31.55
2022-12-19T13:22:03.523Z,37.25
2022-12-19T13:25:28.634Z,41.70
2022-12-19T13:28:34.611Z,31.65
2022-12-19T13:31:36.792Z,38.08
2022-12-19T13:34:43.525Z,40.78
2022-12-19T13:39:49.008Z,36.10
2022-12-19T13:41:48.332Z,43.45
2022-12-19T13:44:52.408Z,30.08
2022-12-19T13:47:57.858Z,29.70
2022-12-19T13:51:11.805Z,30.98
2022-12-19T13:54:27.046Z,29.98
2022-12-19T13:57:32.196Z,33.05
2022-12-19T14:00:42.090Z,33.70
2022-12-19T14:03:47.608Z,37.92
2022-12-19T14:06:57.050Z,35.25
2022-12-19T14:11:28.592Z,36.72
2022-12-19T14:13:49.926Z,34.38
2022-12-19T14:17:08.752Z,40.88
2022-12-19T14:22:01.987Z,38.67
2022-12-19T14:23:45.936Z,36.60
2022-12-19T14:28:26.981Z,39.15
2022-12-19T14:30:32.425Z,37.33
2022-12-19T14:34:18.484Z,36.88
2022-12-19T14:39:22.228Z,35.40
2022-12-19T14:41:07.863Z,33.22
2022-12-19T14:52:08.042Z,35.78
2022-12-19T14:52:08.329Z,32.60
2022-12-19T14:54:28.275Z,36.33
2022-12-19T14:58:55.765Z,41.67
2022-12-19T15:01:35.272Z,54.78
2022-12-19T15:04:52.946Z,44.53
2022-12-19T15:07:59.336Z,53.47
2022-12-19T15:11:45.615Z,45.35
2022-12-19T15:14:59.016Z,48.33
2022-12-19T15:18:15.390Z,55.13
2022-12-19T15:21:19.072Z,60.28
2022-12-19T15:24:21.491Z,50.13
2022-12-19T15:27:23.656Z,48.95
2022-12-19T15:30:27.305Z,55.65
2022-12-19T15:33:29.395Z,57.33
2022-12-19T15:36:31.396Z,55.88
2022-12-19T15:39:33.988Z,55.38
2022-12-19T15:42:37.547Z,44.47
2022-12-19T15:45:40.972Z,48.42
2022-12-19T15:48:46.552Z,60.50
2022-12-19T15:51:50.637Z,57.63
2022-12-19T15:54:52.863Z,57.00
2022-12-19T15:58:01.723Z,57.35
2022-12-19T16:01:04.973Z,56.85
2022-12-19T16:04:13.640Z,54.65
2022-12-19T16:07:18.172Z,58.30
2022-12-19T16:10:20.247Z,63.17
2022-12-19T16:13:27.298Z,67.55
2022-12-19T16:16:30.044Z,53.28
2022-12-19T16:19:34.063Z,52.63
2022-12-19T16:22:38.366Z,50.85
2022-12-19T16:25:49.737Z,54.53
2022-12-19T16:28:52.427Z,47.42
2022-12-19T16:31:55.592Z,55.50
2022-12-19T16:34:57.816Z,64.88
2022-12-19T16:38:00.829Z,60.28
2022-12-19T16:41:03.056Z,65.38
2022-12-19T16:44:15.654Z,71.47
2022-12-19T16:47:20.969Z,68.25
2022-12-19T16:50:25.536Z,70.07
2022-12-19T16:53:28.011Z,67.22
2022-12-19T16:56:40.776Z,78.03
2022-12-19T16:59:42.871Z,88.85
2022-12-19T17:02:45.113Z,84.70
2022-12-19T17:05:48.601Z,82.90
2022-12-19T17:08:51.782Z,91.07
2022-12-19T17:11:58.415Z,75.85
2022-12-19T17:15:08.682Z,81.40
2022-12-19T17:18:18.536Z,83.97
2022-12-19T17:21:22.726Z,72.93
2022-12-19T17:24:25.305Z,91.72
2022-12-19T17:27:27.707Z,99.63
2022-12-19T17:30:29.823Z,91.50
2022-12-19T17:33:38.553Z,82.60
2022-12-19T17:36:40.707Z,89.32
2022-12-19T17:39:43.098Z,85.00
2022-12-19T17:42:45.266Z,79.30
2022-12-19T17:45:47.487Z,93.63
2022-12-19T17:48:51.810Z,98.68
2022-12-19T17:51:54.843Z,93.47
2022-12-19T17:54:56.945Z,95.88
2022-12-19T17:58:00.666Z,81.15
2022-12-19T18:01:02.781Z,96.20
2022-12-19T18:04:05.106Z,93.13
2022-12-19T18:07:15.771Z,122.40
2022-12-19T18:10:23.893Z,141.20
2022-12-19T18:13:29.286Z,124.35
2022-12-19T18:16:31.417Z,58.60
2022-12-19T18:19:34.792Z,52.78
2022-12-19T18:22:41.162Z,56.05
2022-12-19T18:25:45.645Z,105.25
2022-12-19T18:28:48.111Z,99.50
2022-12-19T18:31:51.458Z,95.15
2022-12-19T18:34:54.944Z,93.13
2022-12-19T18:38:00.208Z,97.60
2022-12-19T18:41:02.336Z,101.28
2022-12-19T18:44:07.041Z,109.05
2022-12-19T18:47:20.316Z,105.18
2022-12-19T18:50:24.327Z,117.85
2022-12-19T18:53:35.699Z,108.47
2022-12-19T18:56:40.774Z,109.38
2022-12-19T18:59:42.900Z,110.90
2022-12-19T19:02:50.458Z,117.57
2022-12-19T19:05:52.601Z,113.07
2022-12-19T19:08:57.103Z,129.25
2022-12-19T19:12:17.852Z,124.60
2022-12-19T19:15:28.792Z,134.30
2022-12-19T19:18:37.799Z,132.18
2022-12-19T19:21:40.041Z,103.03
2022-12-19T19:24:52.319Z,108.30
2022-12-19T19:28:00.280Z,103.07
2022-12-19T19:31:02.779Z,91.72
2022-12-19T19:34:29.025Z,103.18
2022-12-19T19:37:31.336Z,87.30
2022-12-19T19:40:35.809Z,91.82
2022-12-19T19:43:38.092Z,96.95
2022-12-19T19:46:40.375Z,91.28
2022-12-19T19:49:42.526Z,97.22
2022-12-19T19:52:44.781Z,94.72
2022-12-19T19:56:00.917Z,113.40
2022-12-19T19:59:04.244Z,55.45
2022-12-19T20:02:08.705Z,55.33
2022-12-19T20:05:11.677Z,56.80
2022-12-19T20:08:14.172Z,58.03
2022-12-19T20:11:16.603Z,62.72
2022-12-19T20:14:19.619Z,59.42
2022-12-19T20:17:23.342Z,50.28
2022-12-19T20:20:25.682Z,52.45
2022-12-19T20:23:29.282Z,64.82
2022-12-19T20:26:32.788Z,105.13
2022-12-19T20:29:34.938Z,107.82
2022-12-19T20:32:37.224Z,118.43
2022-12-19T20:35:39.338Z,112.15
2022-12-19T20:38:41.663Z,109.18
2022-12-19T20:41:43.790Z,116.78
2022-12-19T20:44:45.915Z,109.75
2022-12-19T20:47:48.180Z,128.60
2022-12-19T20:50:56.042Z,111.35
2022-12-19T20:53:58.119Z,126.63
2022-12-19T20:57:00.733Z,114.65
2022-12-19T21:00:04.620Z,121.93
2022-12-19T21:06:29.356Z,138.27
2022-12-19T21:09:32.834Z,119.13
2022-12-19T21:12:35.999Z,113.18
2022-12-19T21:15:38.298Z,118.65
2022-12-19T21:18:42.289Z,111.72
2022-12-19T21:21:45.821Z,113.05
2022-12-19T21:24:47.940Z,107.65
2022-12-19T21:27:49.937Z,94.72
2022-12-19T21:31:04.519Z,104.32
2022-12-19T21:34:07.052Z,117.43
2022-12-19T21:37:09.320Z,100.65
2022-12-19T21:40:14.167Z,108.70
2022-12-19T21:43:16.530Z,112.82
2022-12-19T21:46:22.195Z,103.55
2022-12-19T21:49:24.308Z,114.30
2022-12-19T21:52:26.384Z,108.32
2022-12-19T21:55:28.468Z,106.53
2022-12-19T21:58:31.083Z,117.05
2022-12-19T22:01:34.312Z,107.47
2022-12-19T22:04:36.450Z,114.18
2022-12-19T22:07:38.556Z,105.97
2022-12-19T22:10:40.847Z,117.63
2022-12-19T22:13:43.380Z,113.20
2022-12-19T22:16:45.622Z,122.15
2022-12-19T22:19:47.975Z,102.85
2022-12-19T22:22:50.112Z,114.68
2022-12-19T22:26:20.347Z,114.20
2022-12-19T22:29:23.185Z,108.07
2022-12-19T22:32:27.475Z,112.60
2022-12-19T22:35:29.675Z,118.50
2022-12-19T22:38:32.133Z,105.03
2022-12-19T22:41:35.602Z,110.47
2022-12-19T22:44:38.043Z,105.53
2022-12-19T22:47:43.330Z,105.95
2022-12-19T22:50:47.235Z,112.43
2022-12-19T22:53:49.324Z,114.20
2022-12-19T22:56:52.315Z,120.00
2022-12-19T22:59:54.502Z,103.43
2022-12-19T23:02:57.382Z,98.72
2022-12-19T23:06:01.529Z,99.75
2022-12-19T23:09:05.957Z,100.43
2022-12-19T23:12:09.170Z,98.35
2022-12-19T23:15:13.067Z,103.55
2022-12-19T23:18:15.698Z,107.47
2022-12-19T23:21:22.241Z,106.47
2022-12-19T23:24:24.520Z,88.97
2022-12-19T23:27:28.404Z,97.22
2022-12-19T23:30:30.613Z,92.28
2022-12-19T23:33:36.124Z,87.95
2022-12-19T23:37:09.691Z,84.97
2022-12-19T23:40:02.320Z,98.50
2022-12-19T23:43:04.415Z,92.25
2022-12-19T23:46:26.430Z,90.10
2022-12-19T23:49:28.717Z,86.93
2022-12-19T23:52:30.797Z,87.25
2022-12-19T23:55:33.079Z,78.10
2022-12-19T23:58:35.917Z,79.50
